createdAt,value
2024-04-09T00:19:03.463Z,9.60
2024-04-09T00:49:05.975Z,9.43
2024-04-09T01:19:08.928Z,9.23
2024-04-09T01:49:11.316Z,10.60
2024-04-09T02:19:14.087Z,10.30
2024-04-09T02:49:16.189Z,11.53
2024-04-09T03:19:18.579Z,8.43
2024-04-09T03:49:21.077Z,8.07
2024-04-09T04:19:24.129Z,11.00
2024-04-09T04:49:26.414Z,13.07
2024-04-09T05:19:28.476Z,14.23
2024-04-09T05:49:30.737Z,12.10
2024-04-09T06:19:33.611Z,14.17
2024-04-09T06:49:35.979Z,14.00
2024-04-09T07:19:38.936Z,7.77
2024-04-09T07:49:40.485Z,9.00
2024-04-09T08:19:43.030Z,8.83
2024-04-09T08:49:44.836Z,6.93
2024-04-09T09:19:47.443Z,7.13
2024-04-09T09:49:50.633Z,6.93
2024-04-09T10:19:57.846Z,5.60
2024-04-09T10:49:59.854Z,8.47
2024-04-09T11:50:03.765Z,6.20
2024-04-09T12:20:05.979Z,8.07
2024-04-09T12:50:08.278Z,7.25
2024-04-09T13:20:10.739Z,7.20
2024-04-09T13:50:12.499Z,7.03
2024-04-09T14:20:15.690Z,6.15
2024-04-09T14:50:18.510Z,7.80
2024-04-09T15:20:20.668Z,8.37
2024-04-09T15:50:22.940Z,9.40
2024-04-09T16:20:25.667Z,4.95
2024-04-09T16:50:27.981Z,6.60
2024-04-09T17:20:30.415Z,12.20
2024-04-09T17:50:32.663Z,11.00
2024-04-09T18:20:35.638Z,11.80
2024-04-09T18:50:38.144Z,11.33
2024-04-09T19:20:40.314Z,8.85
2024-04-09T19:50:42.660Z,13.77
2024-04-09T20:20:46.051Z,18.60
2024-04-09T20:50:48.459Z,16.43
2024-04-09T21:20:50.603Z,13.07
2024-04-09T21:50:54.136Z,12.75
2024-04-09T22:20:57.182Z,12.77
2024-04-09T22:50:58.652Z,14.23
2024-04-09T23:21:00.960Z,10.77
2024-04-09T23:51:02.456Z,3.38
